sensor_id;sensor_type;location;lat;lon;timestamp;temperature;humidity
7646;DHT22;3864;48.180;14.178;2023-12-07T00:01:16;1.10;99.90
7646;DHT22;3864;48.180;14.178;2023-12-07T00:03:43;1.10;99.90
7646;DHT22;3864;48.180;14.178;2023-12-07T00:06:11;1.10;99.90
7646;DHT22;3864;48.180;14.178;2023-12-07T00:08:38;1.20;99.90
7646;DHT22;3864;48.180;14.178;2023-12-07T00:11:05;1.20;99.90
7646;DHT22;3864;48.180;14.178;2023-12-07T00:13:32;1.10;99.90
7646;DHT22;3864;48.180;14.178;2023-12-07T00:15:59;1.20;99.90
7646;DHT22;3864;48.180;14.178;2023-12-07T00:18:27;1.10;99.90
7646;DHT22;3864;48.180;14.178;2023-12-07T00:20:54;1.10;99.90
7646;DHT22;3864;48.180;14.178;2023-12-07T00:23:23;1.00;99.90
7646;DHT22;3864;48.180;14.178;2023-12-07T00:25:50;1.00;99.90
7646;DHT22;3864;48.180;14.178;2023-12-07T00:28:17;1.00;99.90
7646;DHT22;3864;48.180;14.178;2023-12-07T00:30:44;0.90;99.90
7646;DHT22;3864;48.180;14.178;2023-12-07T00:33:11;0.90;99.90
7646;DHT22;3864;48.180;14.178;2023-12-07T00:35:38;0.90;99.90
7646;DHT22;3864;48.180;14.178;2023-12-07T00:38:05;0.90;99.90
7646;DHT22;3864;48.180;14.178;2023-12-07T00:40:35;0.80;99.90
7646;DHT22;3864;48.180;14.178;2023-12-07T00:43:05;0.80;99.90
7646;DHT22;3864;48.180;14.178;2023-12-07T00:45:32;0.70;99.90
7646;DHT22;3864;48.180;14.178;2023-12-07T00:48:00;0.80;99.90
7646;DHT22;3864;48.180;14.178;2023-12-07T00:50:27;0.70;99.90
7646;DHT22;3864;48.180;14.178;2023-12-07T00:52:54;0.80;99.90
7646;DHT22;3864;48.180;14.178;2023-12-07T00:55:21;0.90;99.90
7646;DHT22;3864;48.180;14.178;2023-12-07T00:57:50;0.90;99.90
7646;DHT22;3864;48.180;14.178;2023-12-07T01:00:17;0.80;99.90
7646;DHT22;3864;48.180;14.178;2023-12-07T01:02:44;0.80;99.90
7646;DHT22;3864;48.180;14.178;2023-12-07T01:05:11;0.80;99.90
7646;DHT22;3864;48.180;14.178;2023-12-07T01:07:38;0.80;99.90
7646;DHT22;3864;48.180;14.178;2023-12-07T01:10:06;0.70;99.90
7646;DHT22;3864;48.180;14.178;2023-12-07T01:12:33;0.70;99.90
7646;DHT22;3864;48.180;14.178;2023-12-07T01:15:03;0.80;99.90
7646;DHT22;3864;48.180;14.178;2023-12-07T01:17:31;0.80;99.90
7646;DHT22;3864;48.180;14.178;2023-12-07T01:19:58;0.90;99.90
7646;DHT22;3864;48.180;14.178;2023-12-07T01:22:25;0.90;99.90
7646;DHT22;3864;48.180;14.178;2023-12-07T01:24:52;1.00;99.90
7646;DHT22;3864;48.180;14.178;2023-12-07T01:27:19;1.10;99.90
7646;DHT22;3864;48.180;14.178;2023-12-07T01:29:47;1.10;99.90
7646;DHT22;3864;48.180;14.178;2023-12-07T01:32:16;1.10;99.90
7646;DHT22;3864;48.180;14.178;2023-12-07T01:34:43;1.10;99.90
7646;DHT22;3864;48.180;14.178;2023-12-07T01:37:10;1.20;99.90
7646;DHT22;3864;48.180;14.178;2023-12-07T01:39:37;1.20;99.90
7646;DHT22;3864;48.180;14.178;2023-12-07T01:42:04;1.20;99.90
7646;DHT22;3864;48.180;14.178;2023-12-07T01:44:31;1.20;99.90
7646;DHT22;3864;48.180;14.178;2023-12-07T01:46:59;1.20;99.90
7646;DHT22;3864;48.180;14.178;2023-12-07T01:49:27;1.20;99.90
7646;DHT22;3864;48.180;14.178;2023-12-07T01:51:56;1.20;99.90
7646;DHT22;3864;48.180;14.178;2023-12-07T01:54:23;1.20;99.90
7646;DHT22;3864;48.180;14.178;2023-12-07T01:56:50;1.20;99.90
7646;DHT22;3864;48.180;14.178;2023-12-07T01:59:17;1.20;99.90
7646;DHT22;3864;48.180;14.178;2023-12-07T02:01:44;1.10;99.90
7646;DHT22;3864;48.180;14.178;2023-12-07T02:04:11;1.10;99.90
7646;DHT22;3864;48.180;14.178;2023-12-07T02:06:41;1.20;99.90
7646;DHT22;3864;48.180;14.178;2023-12-07T02:09:08;1.20;99.90
7646;DHT22;3864;48.180;14.178;2023-12-07T02:11:35;1.20;99.90
7646;DHT22;3864;48.180;14.178;2023-12-07T02:14:02;1.20;99.90
7646;DHT22;3864;48.180;14.178;2023-12-07T02:16:29;1.20;99.90
7646;DHT22;3864;48.180;14.178;2023-12-07T02:19:01;1.20;99.90
7646;DHT22;3864;48.180;14.178;2023-12-07T02:21:33;1.30;99.90
7646;DHT22;3864;48.180;14.178;2023-12-07T02:24:03;1.30;99.90
7646;DHT22;3864;48.180;14.178;2023-12-07T02:26:52;1.30;99.90
7646;DHT22;3864;48.180;14.178;2023-12-07T02:29:19;1.40;99.90
7646;DHT22;3864;48.180;14.178;2023-12-07T02:31:46;1.40;99.90
7646;DHT22;3864;48.180;14.178;2023-12-07T02:34:13;1.40;99.90
7646;DHT22;3864;48.180;14.178;2023-12-07T02:36:43;1.30;99.90
7646;DHT22;3864;48.180;14.178;2023-12-07T02:39:12;1.30;99.90
7646;DHT22;3864;48.180;14.178;2023-12-07T02:41:40;1.30;99.90
7646;DHT22;3864;48.180;14.178;2023-12-07T02:44:10;1.30;99.90
7646;DHT22;3864;48.180;14.178;2023-12-07T02:46:37;1.30;99.90
7646;DHT22;3864;48.180;14.178;2023-12-07T02:49:05;1.30;99.90
7646;DHT22;3864;48.180;14.178;2023-12-07T02:51:32;1.30;99.90
7646;DHT22;3864;48.180;14.178;2023-12-07T02:53:59;1.30;99.90
7646;DHT22;3864;48.180;14.178;2023-12-07T02:56:26;1.40;99.90
7646;DHT22;3864;48.180;14.178;2023-12-07T02:58:53;1.40;99.90
7646;DHT22;3864;48.180;14.178;2023-12-07T03:01:21;1.40;99.90
7646;DHT22;3864;48.180;14.178;2023-12-07T03:03:48;1.40;99.90
7646;DHT22;3864;48.180;14.178;2023-12-07T03:06:15;1.40;99.90
7646;DHT22;3864;48.180;14.178;2023-12-07T03:08:42;1.30;99.90
7646;DHT22;3864;48.180;14.178;2023-12-07T03:11:10;1.30;99.90
7646;DHT22;3864;48.180;14.178;2023-12-07T03:13:38;1.20;99.90
7646;DHT22;3864;48.180;14.178;2023-12-07T03:16:07;1.20;99.90
7646;DHT22;3864;48.180;14.178;2023-12-07T03:18:37;1.20;99.90
7646;DHT22;3864;48.180;14.178;2023-12-07T03:21:04;1.20;99.90
7646;DHT22;3864;48.180;14.178;2023-12-07T03:23:32;1.20;99.90
7646;DHT22;3864;48.180;14.178;2023-12-07T03:25:58;1.20;99.90
7646;DHT22;3864;48.180;14.178;2023-12-07T03:28:26;1.30;99.90
7646;DHT22;3864;48.180;14.178;2023-12-07T03:30:53;1.20;99.90
7646;DHT22;3864;48.180;14.178;2023-12-07T03:33:19;1.30;99.90
7646;DHT22;3864;48.180;14.178;2023-12-07T03:35:48;1.30;99.90
7646;DHT22;3864;48.180;14.178;2023-12-07T03:38:15;1.20;99.90
7646;DHT22;3864;48.180;14.178;2023-12-07T03:40:42;1.20;99.90
7646;DHT22;3864;48.180;14.178;2023-12-07T03:43:13;1.20;99.90
7646;DHT22;3864;48.180;14.178;2023-12-07T03:45:40;1.20;99.90
7646;DHT22;3864;48.180;14.178;2023-12-07T03:48:07;1.30;99.90
7646;DHT22;3864;48.180;14.178;2023-12-07T03:50:34;1.30;99.90
7646;DHT22;3864;48.180;14.178;2023-12-07T03:53:03;1.30;99.90
7646;DHT22;3864;48.180;14.178;2023-12-07T03:55:30;1.30;99.90
7646;DHT22;3864;48.180;14.178;2023-12-07T03:57:57;1.30;99.90
7646;DHT22;3864;48.180;14.178;2023-12-07T04:00:24;1.30;99.90
7646;DHT22;3864;48.180;14.178;2023-12-07T04:02:51;1.20;99.90
7646;DHT22;3864;48.180;14.178;2023-12-07T04:05:18;1.20;99.90
7646;DHT22;3864;48.180;14.178;2023-12-07T04:07:45;1.30;99.90
7646;DHT22;3864;48.180;14.178;2023-12-07T04:10:14;1.30;99.90
7646;DHT22;3864;48.180;14.178;2023-12-07T04:12:41;1.30;99.90
7646;DHT22;3864;48.180;14.178;2023-12-07T04:15:08;1.30;99.90
7646;DHT22;3864;48.180;14.178;2023-12-07T04:17:35;1.30;99.90
7646;DHT22;3864;48.180;14.178;2023-12-07T04:20:03;1.30;99.90
7646;DHT22;3864;48.180;14.178;2023-12-07T04:22:31;1.20;99.90
7646;DHT22;3864;48.180;14.178;2023-12-07T04:24:58;1.30;99.90
7646;DHT22;3864;48.180;14.178;2023-12-07T04:27:27;1.30;99.90
7646;DHT22;3864;48.180;14.178;2023-12-07T04:29:54;1.30;99.90
7646;DHT22;3864;48.180;14.178;2023-12-07T04:32:21;1.40;99.90
7646;DHT22;3864;48.180;14.178;2023-12-07T04:34:48;1.40;99.90
7646;DHT22;3864;48.180;14.178;2023-12-07T04:37:15;1.40;99.90
7646;DHT22;3864;48.180;14.178;2023-12-07T04:39:43;1.50;99.90
7646;DHT22;3864;48.180;14.178;2023-12-07T04:42:10;1.50;99.90
7646;DHT22;3864;48.180;14.178;2023-12-07T04:44:39;1.50;99.90
7646;DHT22;3864;48.180;14.178;2023-12-07T04:47:06;1.50;99.90
7646;DHT22;3864;48.180;14.178;2023-12-07T04:49:33;1.50;99.90
7646;DHT22;3864;48.180;14.178;2023-12-07T04:52:00;1.50;99.90
7646;DHT22;3864;48.180;14.178;2023-12-07T04:54:27;1.40;99.90
7646;DHT22;3864;48.180;14.178;2023-12-07T04:56:54;1.40;99.90
7646;DHT22;3864;48.180;14.178;2023-12-07T04:59:21;1.40;99.90
7646;DHT22;3864;48.180;14.178;2023-12-07T05:01:49;1.40;99.90
7646;DHT22;3864;48.180;14.178;2023-12-07T05:04:16;1.40;99.90
7646;DHT22;3864;48.180;14.178;2023-12-07T05:06:43;1.40;99.90
7646;DHT22;3864;48.180;14.178;2023-12-07T05:09:10;1.40;99.90
7646;DHT22;3864;48.180;14.178;2023-12-07T05:11:37;1.40;99.90
7646;DHT22;3864;48.180;14.178;2023-12-07T05:14:04;1.40;99.90
7646;DHT22;3864;48.180;14.178;2023-12-07T05:16:31;1.50;99.90
7646;DHT22;3864;48.180;14.178;2023-12-07T05:19:00;1.40;99.90
7646;DHT22;3864;48.180;14.178;2023-12-07T05:21:28;1.40;99.90
7646;DHT22;3864;48.180;14.178;2023-12-07T05:23:55;1.40;99.90
7646;DHT22;3864;48.180;14.178;2023-12-07T05:26:22;1.40;99.90
7646;DHT22;3864;48.180;14.178;2023-12-07T05:28:49;1.40;99.90
7646;DHT22;3864;48.180;14.178;2023-12-07T05:31:17;1.40;99.90
7646;DHT22;3864;48.180;14.178;2023-12-07T05:33:44;1.40;99.90
7646;DHT22;3864;48.180;14.178;2023-12-07T05:36:12;1.40;99.90
7646;DHT22;3864;48.180;14.178;2023-12-07T05:38:40;1.40;99.90
7646;DHT22;3864;48.180;14.178;2023-12-07T05:41:07;1.40;99.90
7646;DHT22;3864;48.180;14.178;2023-12-07T05:43:35;1.40;99.90
7646;DHT22;3864;48.180;14.178;2023-12-07T05:46:02;1.30;99.90
7646;DHT22;3864;48.180;14.178;2023-12-07T05:48:29;1.20;99.90
7646;DHT22;3864;48.180;14.178;2023-12-07T05:50:55;1.20;99.90
7646;DHT22;3864;48.180;14.178;2023-12-07T05:53:24;1.20;99.90
7646;DHT22;3864;48.180;14.178;2023-12-07T05:55:51;1.20;99.90
7646;DHT22;3864;48.180;14.178;2023-12-07T05:58:18;1.20;99.90
7646;DHT22;3864;48.180;14.178;2023-12-07T06:00:45;1.10;99.90
7646;DHT22;3864;48.180;14.178;2023-12-07T06:03:12;1.10;99.90
7646;DHT22;3864;48.180;14.178;2023-12-07T06:05:41;1.10;99.90
7646;DHT22;3864;48.180;14.178;2023-12-07T06:08:10;1.10;99.90
7646;DHT22;3864;48.180;14.178;2023-12-07T06:10:39;1.10;99.90
7646;DHT22;3864;48.180;14.178;2023-12-07T06:13:06;1.00;99.90
7646;DHT22;3864;48.180;14.178;2023-12-07T06:15:33;1.00;99.90
7646;DHT22;3864;48.180;14.178;2023-12-07T06:18:01;1.00;99.90
7646;DHT22;3864;48.180;14.178;2023-12-07T06:20:28;1.00;99.90
7646;DHT22;3864;48.180;14.178;2023-12-07T06:22:55;1.00;99.90
7646;DHT22;3864;48.180;14.178;2023-12-07T06:25:23;0.90;99.90
7646;DHT22;3864;48.180;14.178;2023-12-07T06:27:52;0.90;99.90
7646;DHT22;3864;48.180;14.178;2023-12-07T06:30:19;1.00;99.90
7646;DHT22;3864;48.180;14.178;2023-12-07T06:32:46;0.90;99.90
7646;DHT22;3864;48.180;14.178;2023-12-07T06:35:13;1.00;99.90
7646;DHT22;3864;48.180;14.178;2023-12-07T06:37:41;1.00;99.90
7646;DHT22;3864;48.180;14.178;2023-12-07T06:40:08;1.00;99.90
7646;DHT22;3864;48.180;14.178;2023-12-07T06:42:36;0.90;99.90
7646;DHT22;3864;48.180;14.178;2023-12-07T06:45:06;0.90;99.90
7646;DHT22;3864;48.180;14.178;2023-12-07T06:47:36;0.90;99.90
7646;DHT22;3864;48.180;14.178;2023-12-07T06:50:04;0.90;99.90
7646;DHT22;3864;48.180;14.178;2023-12-07T06:52:33;0.90;99.90
7646;DHT22;3864;48.180;14.178;2023-12-07T06:55:00;0.90;99.90
7646;DHT22;3864;48.180;14.178;2023-12-07T06:57:28;0.90;99.90
7646;DHT22;3864;48.180;14.178;2023-12-07T06:59:55;0.90;99.90
7646;DHT22;3864;48.180;14.178;2023-12-07T07:02:23;0.90;99.90
7646;DHT22;3864;48.180;14.178;2023-12-07T07:04:51;0.90;99.90
7646;DHT22;3864;48.180;14.178;2023-12-07T07:07:18;0.90;99.90
7646;DHT22;3864;48.180;14.178;2023-12-07T07:09:45;0.90;99.90
7646;DHT22;3864;48.180;14.178;2023-12-07T07:12:12;1.00;99.90
7646;DHT22;3864;48.180;14.178;2023-12-07T07:14:39;1.00;99.90
7646;DHT22;3864;48.180;14.178;2023-12-07T07:17:07;1.10;99.90
7646;DHT22;3864;48.180;14.178;2023-12-07T07:19:36;1.20;99.90
7646;DHT22;3864;48.180;14.178;2023-12-07T07:22:03;1.20;99.90
7646;DHT22;3864;48.180;14.178;2023-12-07T07:24:30;1.20;99.90
7646;DHT22;3864;48.180;14.178;2023-12-07T07:26:57;1.20;99.90
7646;DHT22;3864;48.180;14.178;2023-12-07T07:29:24;1.20;99.90
7646;DHT22;3864;48.180;14.178;2023-12-07T07:31:51;1.20;99.90
7646;DHT22;3864;48.180;14.178;2023-12-07T07:34:18;1.30;99.90
7646;DHT22;3864;48.180;14.178;2023-12-07T07:36:47;1.30;99.90
7646;DHT22;3864;48.180;14.178;2023-12-07T07:39:15;1.40;99.90
7646;DHT22;3864;48.180;14.178;2023-12-07T07:41:42;1.50;99.90
7646;DHT22;3864;48.180;14.178;2023-12-07T07:44:09;1.60;99.90
7646;DHT22;3864;48.180;14.178;2023-12-07T07:46:37;1.60;99.90
7646;DHT22;3864;48.180;14.178;2023-12-07T07:49:04;1.80;99.90
7646;DHT22;3864;48.180;14.178;2023-12-07T07:51:32;1.90;99.90
7646;DHT22;3864;48.180;14.178;2023-12-07T07:54:01;2.00;99.90
7646;DHT22;3864;48.180;14.178;2023-12-07T07:56:28;2.20;99.90
7646;DHT22;3864;48.180;14.178;2023-12-07T07:58:55;2.40;99.90
7646;DHT22;3864;48.180;14.178;2023-12-07T08:01:23;2.50;99.90
7646;DHT22;3864;48.180;14.178;2023-12-07T08:03:50;2.50;99.90
7646;DHT22;3864;48.180;14.178;2023-12-07T08:06:17;2.60;99.90
7646;DHT22;3864;48.180;14.178;2023-12-07T08:08:44;2.70;99.90
7646;DHT22;3864;48.180;14.178;2023-12-07T08:11:16;2.80;99.90
7646;DHT22;3864;48.180;14.178;2023-12-07T08:13:43;2.80;99.90
7646;DHT22;3864;48.180;14.178;2023-12-07T08:16:10;2.80;99.90
7646;DHT22;3864;48.180;14.178;2023-12-07T08:18:37;2.80;99.90
7646;DHT22;3864;48.180;14.178;2023-12-07T08:21:05;2.90;99.90
7646;DHT22;3864;48.180;14.178;2023-12-07T08:23:34;3.00;99.90
7646;DHT22;3864;48.180;14.178;2023-12-07T08:26:01;3.10;99.90
7646;DHT22;3864;48.180;14.178;2023-12-07T08:28:29;3.10;99.90
7646;DHT22;3864;48.180;14.178;2023-12-07T08:30:56;3.20;99.90
7646;DHT22;3864;48.180;14.178;2023-12-07T08:33:24;3.20;99.90
7646;DHT22;3864;48.180;14.178;2023-12-07T08:35:51;3.30;99.90
7646;DHT22;3864;48.180;14.178;2023-12-07T08:38:20;3.50;99.90
7646;DHT22;3864;48.180;14.178;2023-12-07T08:40:49;3.60;99.90
7646;DHT22;3864;48.180;14.178;2023-12-07T08:43:15;3.70;99.90
7646;DHT22;3864;48.180;14.178;2023-12-07T08:45:44;3.80;99.90
7646;DHT22;3864;48.180;14.178;2023-12-07T08:48:11;4.00;99.90
7646;DHT22;3864;48.180;14.178;2023-12-07T08:50:38;4.00;99.90
7646;DHT22;3864;48.180;14.178;2023-12-07T08:53:06;4.00;99.90
7646;DHT22;3864;48.180;14.178;2023-12-07T08:55:34;4.00;99.90
7646;DHT22;3864;48.180;14.178;2023-12-07T08:58:01;4.20;99.90
7646;DHT22;3864;48.180;14.178;2023-12-07T09:00:30;4.30;99.90
7646;DHT22;3864;48.180;14.178;2023-12-07T09:02:59;4.30;99.90
7646;DHT22;3864;48.180;14.178;2023-12-07T09:05:27;4.40;99.90
7646;DHT22;3864;48.180;14.178;2023-12-07T09:07:55;4.40;99.90
7646;DHT22;3864;48.180;14.178;2023-12-07T09:10:23;4.40;99.90
7646;DHT22;3864;48.180;14.178;2023-12-07T09:12:50;4.40;99.90
7646;DHT22;3864;48.180;14.178;2023-12-07T09:15:17;4.30;99.90
7646;DHT22;3864;48.180;14.178;2023-12-07T09:17:44;4.40;99.90
7646;DHT22;3864;48.180;14.178;2023-12-07T09:20:13;4.40;99.90
7646;DHT22;3864;48.180;14.178;2023-12-07T09:22:44;4.40;99.90
7646;DHT22;3864;48.180;14.178;2023-12-07T09:25:12;4.50;99.90
7646;DHT22;3864;48.180;14.178;2023-12-07T09:27:39;4.60;99.90
7646;DHT22;3864;48.180;14.178;2023-12-07T09:30:08;4.60;99.90
7646;DHT22;3864;48.180;14.178;2023-12-07T09:32:36;4.60;99.90
7646;DHT22;3864;48.180;14.178;2023-12-07T09:35:04;4.70;99.90
7646;DHT22;3864;48.180;14.178;2023-12-07T09:37:34;4.90;99.90
7646;DHT22;3864;48.180;14.178;2023-12-07T09:40:02;4.80;99.90
7646;DHT22;3864;48.180;14.178;2023-12-07T09:42:31;4.80;99.90
7646;DHT22;3864;48.180;14.178;2023-12-07T09:44:58;4.70;99.90
7646;DHT22;3864;48.180;14.178;2023-12-07T09:47:26;4.70;99.90
7646;DHT22;3864;48.180;14.178;2023-12-07T09:49:53;4.70;99.90
7646;DHT22;3864;48.180;14.178;2023-12-07T09:52:20;4.60;99.90
7646;DHT22;3864;48.180;14.178;2023-12-07T09:54:50;4.60;99.90
7646;DHT22;3864;48.180;14.178;2023-12-07T09:57:18;4.60;99.90
7646;DHT22;3864;48.180;14.178;2023-12-07T09:59:45;4.80;99.90
7646;DHT22;3864;48.180;14.178;2023-12-07T10:02:13;4.80;99.90
7646;DHT22;3864;48.180;14.178;2023-12-07T10:04:41;4.80;99.90
7646;DHT22;3864;48.180;14.178;2023-12-07T10:07:08;4.90;99.90
7646;DHT22;3864;48.180;14.178;2023-12-07T10:09:38;5.10;99.90
7646;DHT22;3864;48.180;14.178;2023-12-07T10:12:08;5.20;99.90
7646;DHT22;3864;48.180;14.178;2023-12-07T10:14:36;5.40;99.90
7646;DHT22;3864;48.180;14.178;2023-12-07T10:17:04;5.40;99.90
7646;DHT22;3864;48.180;14.178;2023-12-07T10:19:31;5.60;99.90
7646;DHT22;3864;48.180;14.178;2023-12-07T10:21:59;5.70;99.90
7646;DHT22;3864;48.180;14.178;2023-12-07T10:24:26;5.90;99.90
7646;DHT22;3864;48.180;14.178;2023-12-07T10:26:54;5.80;99.90
7646;DHT22;3864;48.180;14.178;2023-12-07T10:29:24;6.00;99.90
7646;DHT22;3864;48.180;14.178;2023-12-07T10:32:00;6.10;99.90
7646;DHT22;3864;48.180;14.178;2023-12-07T10:34:27;6.10;99.90
7646;DHT22;3864;48.180;14.178;2023-12-07T10:36:54;6.10;99.90
7646;DHT22;3864;48.180;14.178;2023-12-07T10:39:23;6.20;99.90
7646;DHT22;3864;48.180;14.178;2023-12-07T10:41:54;6.20;99.90
7646;DHT22;3864;48.180;14.178;2023-12-07T10:44:26;5.70;99.90
7646;DHT22;3864;48.180;14.178;2023-12-07T10:46:55;5.80;99.90
7646;DHT22;3864;48.180;14.178;2023-12-07T10:49:25;5.90;99.90
7646;DHT22;3864;48.180;14.178;2023-12-07T10:51:59;6.20;99.90
7646;DHT22;3864;48.180;14.178;2023-12-07T10:54:33;6.50;99.90
7646;DHT22;3864;48.180;14.178;2023-12-07T10:57:03;6.40;99.90
7646;DHT22;3864;48.180;14.178;2023-12-07T10:59:35;6.50;99.90
7646;DHT22;3864;48.180;14.178;2023-12-07T11:02:06;6.60;99.90
7646;DHT22;3864;48.180;14.178;2023-12-07T11:04:35;6.50;99.90
7646;DHT22;3864;48.180;14.178;2023-12-07T11:07:09;6.70;99.90
7646;DHT22;3864;48.180;14.178;2023-12-07T11:09:44;6.20;99.90
7646;DHT22;3864;48.180;14.178;2023-12-07T11:12:17;6.20;99.90
7646;DHT22;3864;48.180;14.178;2023-12-07T11:14:47;6.10;99.90
7646;DHT22;3864;48.180;14.178;2023-12-07T11:17:15;6.10;99.90
7646;DHT22;3864;48.180;14.178;2023-12-07T11:19:44;6.10;99.90
7646;DHT22;3864;48.180;14.178;2023-12-07T11:22:12;5.70;99.90
7646;DHT22;3864;48.180;14.178;2023-12-07T11:24:52;5.80;99.90
7646;DHT22;3864;48.180;14.178;2023-12-07T11:27:23;5.90;99.90
7646;DHT22;3864;48.180;14.178;2023-12-07T11:29:52;5.80;99.90
7646;DHT22;3864;48.180;14.178;2023-12-07T11:32:20;5.80;99.90
7646;DHT22;3864;48.180;14.178;2023-12-07T11:34:47;6.00;99.90
7646;DHT22;3864;48.180;14.178;2023-12-07T11:37:15;6.10;99.90
7646;DHT22;3864;48.180;14.178;2023-12-07T11:39:43;5.40;99.90
7646;DHT22;3864;48.180;14.178;2023-12-07T11:42:14;4.90;99.90
7646;DHT22;3864;48.180;14.178;2023-12-07T11:44:42;5.20;99.90
7646;DHT22;3864;48.180;14.178;2023-12-07T11:47:16;5.60;99.90
7646;DHT22;3864;48.180;14.178;2023-12-07T11:49:43;5.60;99.90
7646;DHT22;3864;48.180;14.178;2023-12-07T11:52:15;5.60;99.90
7646;DHT22;3864;48.180;14.178;2023-12-07T11:54:46;5.20;99.90
7646;DHT22;3864;48.180;14.178;2023-12-07T11:57:14;4.50;99.90
7646;DHT22;3864;48.180;14.178;2023-12-07T11:59:43;4.20;99.90
7646;DHT22;3864;48.180;14.178;2023-12-07T12:02:13;3.90;99.90
7646;DHT22;3864;48.180;14.178;2023-12-07T12:04:41;3.90;99.90
7646;DHT22;3864;48.180;14.178;2023-12-07T12:07:08;3.90;99.90
7646;DHT22;3864;48.180;14.178;2023-12-07T12:09:36;3.90;99.90
7646;DHT22;3864;48.180;14.178;2023-12-07T12:12:03;4.10;99.90
7646;DHT22;3864;48.180;14.178;2023-12-07T12:14:31;4.00;99.90
7646;DHT22;3864;48.180;14.178;2023-12-07T12:16:58;3.90;99.90
7646;DHT22;3864;48.180;14.178;2023-12-07T12:19:27;3.80;99.90
7646;DHT22;3864;48.180;14.178;2023-12-07T12:22:02;3.80;99.90
7646;DHT22;3864;48.180;14.178;2023-12-07T12:24:30;3.80;99.90
7646;DHT22;3864;48.180;14.178;2023-12-07T12:26:58;3.80;99.90
7646;DHT22;3864;48.180;14.178;2023-12-07T12:29:26;3.70;99.90
7646;DHT22;3864;48.180;14.178;2023-12-07T12:31:56;3.50;99.90
7646;DHT22;3864;48.180;14.178;2023-12-07T12:34:24;3.30;99.90
7646;DHT22;3864;48.180;14.178;2023-12-07T12:36:55;3.10;99.90
7646;DHT22;3864;48.180;14.178;2023-12-07T12:39:27;2.90;99.90
7646;DHT22;3864;48.180;14.178;2023-12-07T12:41:55;2.90;99.90
7646;DHT22;3864;48.180;14.178;2023-12-07T12:44:23;2.90;99.90
7646;DHT22;3864;48.180;14.178;2023-12-07T12:46:50;2.90;99.90
7646;DHT22;3864;48.180;14.178;2023-12-07T12:49:17;2.80;99.90
7646;DHT22;3864;48.180;14.178;2023-12-07T12:51:45;2.70;99.90
7646;DHT22;3864;48.180;14.178;2023-12-07T12:54:15;2.70;99.90
7646;DHT22;3864;48.180;14.178;2023-12-07T12:56:43;2.60;99.90
7646;DHT22;3864;48.180;14.178;2023-12-07T12:59:11;2.40;99.90
7646;DHT22;3864;48.180;14.178;2023-12-07T13:01:39;2.50;99.90
7646;DHT22;3864;48.180;14.178;2023-12-07T13:04:07;2.40;99.90
7646;DHT22;3864;48.180;14.178;2023-12-07T13:06:40;2.40;99.90
7646;DHT22;3864;48.180;14.178;2023-12-07T13:09:09;2.40;99.90
7646;DHT22;3864;48.180;14.178;2023-12-07T13:11:38;2.20;99.90
7646;DHT22;3864;48.180;14.178;2023-12-07T13:14:05;2.20;99.90
7646;DHT22;3864;48.180;14.178;2023-12-07T13:16:33;2.20;99.90
7646;DHT22;3864;48.180;14.178;2023-12-07T13:19:00;2.20;99.90
7646;DHT22;3864;48.180;14.178;2023-12-07T13:21:27;2.20;99.90
7646;DHT22;3864;48.180;14.178;2023-12-07T13:23:55;2.20;99.90
7646;DHT22;3864;48.180;14.178;2023-12-07T13:26:24;2.30;99.90
7646;DHT22;3864;48.180;14.178;2023-12-07T13:28:53;2.20;99.90
7646;DHT22;3864;48.180;14.178;2023-12-07T13:31:20;2.20;99.90
7646;DHT22;3864;48.180;14.178;2023-12-07T13:33:47;2.20;99.90
7646;DHT22;3864;48.180;14.178;2023-12-07T13:36:15;2.30;99.90
7646;DHT22;3864;48.180;14.178;2023-12-07T13:38:43;2.30;99.90
7646;DHT22;3864;48.180;14.178;2023-12-07T13:41:10;2.40;99.90
7646;DHT22;3864;48.180;14.178;2023-12-07T13:43:38;2.40;99.90
7646;DHT22;3864;48.180;14.178;2023-12-07T13:46:07;2.50;99.90
7646;DHT22;3864;48.180;14.178;2023-12-07T13:48:34;2.50;99.90
7646;DHT22;3864;48.180;14.178;2023-12-07T13:51:01;2.40;99.90
7646;DHT22;3864;48.180;14.178;2023-12-07T13:53:30;2.30;99.90
7646;DHT22;3864;48.180;14.178;2023-12-07T13:55:57;2.10;99.90
7646;DHT22;3864;48.180;14.178;2023-12-07T13:58:24;2.00;99.90
7646;DHT22;3864;48.180;14.178;2023-12-07T14:00:51;1.90;99.90
7646;DHT22;3864;48.180;14.178;2023-12-07T14:03:20;1.80;99.90
7646;DHT22;3864;48.180;14.178;2023-12-07T14:05:48;1.70;99.90
7646;DHT22;3864;48.180;14.178;2023-12-07T14:08:15;1.60;99.90
7646;DHT22;3864;48.180;14.178;2023-12-07T14:10:42;1.40;99.90
7646;DHT22;3864;48.180;14.178;2023-12-07T14:13:09;1.30;99.90
7646;DHT22;3864;48.180;14.178;2023-12-07T14:15:36;1.30;99.90
7646;DHT22;3864;48.180;14.178;2023-12-07T14:18:03;1.20;99.90
7646;DHT22;3864;48.180;14.178;2023-12-07T14:20:32;1.00;99.90
7646;DHT22;3864;48.180;14.178;2023-12-07T14:22:59;0.90;99.90
7646;DHT22;3864;48.180;14.178;2023-12-07T14:25:29;0.80;99.90
7646;DHT22;3864;48.180;14.178;2023-12-07T14:27:57;0.70;99.90
7646;DHT22;3864;48.180;14.178;2023-12-07T14:30:24;0.50;99.90
7646;DHT22;3864;48.180;14.178;2023-12-07T14:32:53;0.40;99.90
7646;DHT22;3864;48.180;14.178;2023-12-07T14:35:20;0.20;99.90
7646;DHT22;3864;48.180;14.178;2023-12-07T14:37:48;0.20;99.90
7646;DHT22;3864;48.180;14.178;2023-12-07T14:40:15;0.10;99.90
7646;DHT22;3864;48.180;14.178;2023-12-07T14:42:43;0.10;99.90
7646;DHT22;3864;48.180;14.178;2023-12-07T14:45:10;0.00;99.90
7646;DHT22;3864;48.180;14.178;2023-12-07T14:47:39;0.00;99.90
7646;DHT22;3864;48.180;14.178;2023-12-07T14:50:06;-0.10;99.90
7646;DHT22;3864;48.180;14.178;2023-12-07T14:52:34;-0.20;99.90
7646;DHT22;3864;48.180;14.178;2023-12-07T14:55:02;-0.20;99.90
7646;DHT22;3864;48.180;14.178;2023-12-07T14:57:30;-0.30;99.90
7646;DHT22;3864;48.180;14.178;2023-12-07T14:59:57;-0.40;99.90
7646;DHT22;3864;48.180;14.178;2023-12-07T15:02:25;-0.50;99.90
7646;DHT22;3864;48.180;14.178;2023-12-07T15:04:52;-0.60;99.90
7646;DHT22;3864;48.180;14.178;2023-12-07T15:07:23;-0.60;99.90
7646;DHT22;3864;48.180;14.178;2023-12-07T15:09:53;-0.70;99.90
7646;DHT22;3864;48.180;14.178;2023-12-07T15:12:22;-0.70;99.90
7646;DHT22;3864;48.180;14.178;2023-12-07T15:14:50;-0.80;99.90
7646;DHT22;3864;48.180;14.178;2023-12-07T15:17:18;-0.80;99.90
7646;DHT22;3864;48.180;14.178;2023-12-07T15:19:45;-0.90;99.90
7646;DHT22;3864;48.180;14.178;2023-12-07T15:22:12;-0.90;99.90
7646;DHT22;3864;48.180;14.178;2023-12-07T15:24:39;-1.00;99.90
7646;DHT22;3864;48.180;14.178;2023-12-07T15:27:06;-1.10;99.90
7646;DHT22;3864;48.180;14.178;2023-12-07T15:29:39;-1.10;99.90
7646;DHT22;3864;48.180;14.178;2023-12-07T15:32:10;-1.00;99.90
7646;DHT22;3864;48.180;14.178;2023-12-07T15:34:40;-1.10;99.90
7646;DHT22;3864;48.180;14.178;2023-12-07T15:37:11;-1.10;99.90
7646;DHT22;3864;48.180;14.178;2023-12-07T15:39:38;-1.10;99.90
7646;DHT22;3864;48.180;14.178;2023-12-07T15:42:10;-1.10;99.90
7646;DHT22;3864;48.180;14.178;2023-12-07T15:44:46;-1.00;99.90
7646;DHT22;3864;48.180;14.178;2023-12-07T15:47:15;-1.00;99.90
7646;DHT22;3864;48.180;14.178;2023-12-07T15:49:43;-1.00;99.90
7646;DHT22;3864;48.180;14.178;2023-12-07T15:52:12;-0.90;99.90
7646;DHT22;3864;48.180;14.178;2023-12-07T15:54:41;-0.80;99.90
7646;DHT22;3864;48.180;14.178;2023-12-07T15:57:09;-0.80;99.90
7646;DHT22;3864;48.180;14.178;2023-12-07T15:59:37;-0.90;99.90
7646;DHT22;3864;48.180;14.178;2023-12-07T16:02:07;-0.80;99.90
7646;DHT22;3864;48.180;14.178;2023-12-07T16:04:34;-0.90;99.90